sensor_id;sensor_type;location;lat;lon;timestamp;temperature;humidity
66831;DHT22;53739;44.224;22.528;2023-01-19T00:00:00;231.10;2252.80
66831;DHT22;53739;44.224;22.528;2023-01-19T00:02:26;231.10;2252.80
66831;DHT22;53739;44.224;22.528;2023-01-19T00:04:51;231.20;2252.80
66831;DHT22;53739;44.224;22.528;2023-01-19T00:07:17;231.20;2252.80
66831;DHT22;53739;44.224;22.528;2023-01-19T00:09:43;231.20;2252.80
66831;DHT22;53739;44.224;22.528;2023-01-19T00:12:09;231.20;2252.80
66831;DHT22;53739;44.224;22.528;2023-01-19T00:14:34;231.20;2252.80
66831;DHT22;53739;44.224;22.528;2023-01-19T00:17:00;231.20;2252.80
66831;DHT22;53739;44.224;22.528;2023-01-19T00:19:27;231.20;2252.80
66831;DHT22;53739;44.224;22.528;2023-01-19T00:21:53;231.20;2252.80
66831;DHT22;53739;44.224;22.528;2023-01-19T00:24:19;231.20;2252.80
66831;DHT22;53739;44.224;22.528;2023-01-19T00:26:45;231.20;2252.80
66831;DHT22;53739;44.224;22.528;2023-01-19T00:29:12;231.10;2252.80
66831;DHT22;53739;44.224;22.528;2023-01-19T00:31:38;231.00;2252.80
66831;DHT22;53739;44.224;22.528;2023-01-19T00:34:05;230.90;2252.80
66831;DHT22;53739;44.224;22.528;2023-01-19T00:36:32;230.90;2252.80
66831;DHT22;53739;44.224;22.528;2023-01-19T00:38:58;230.90;2252.80
66831;DHT22;53739;44.224;22.528;2023-01-19T00:41:24;230.90;2252.80
66831;DHT22;53739;44.224;22.528;2023-01-19T00:44:09;230.90;2252.80
66831;DHT22;53739;44.224;22.528;2023-01-19T00:46:35;230.80;2252.80
66831;DHT22;53739;44.224;22.528;2023-01-19T00:49:01;230.70;2252.80
66831;DHT22;53739;44.224;22.528;2023-01-19T00:51:27;230.70;2252.80
66831;DHT22;53739;44.224;22.528;2023-01-19T00:53:52;230.80;2252.80
66831;DHT22;53739;44.224;22.528;2023-01-19T00:56:18;230.80;2252.80
66831;DHT22;53739;44.224;22.528;2023-01-19T00:58:44;230.70;2252.80
66831;DHT22;53739;44.224;22.528;2023-01-19T01:01:10;230.70;2252.80
66831;DHT22;53739;44.224;22.528;2023-01-19T01:03:36;230.80;2252.80
66831;DHT22;53739;44.224;22.528;2023-01-19T01:06:02;230.80;2252.80
66831;DHT22;53739;44.224;22.528;2023-01-19T01:08:29;230.80;2252.80
66831;DHT22;53739;44.224;22.528;2023-01-19T01:10:55;230.80;2252.80
66831;DHT22;53739;44.224;22.528;2023-01-19T01:13:21;230.70;2252.80
66831;DHT22;53739;44.224;22.528;2023-01-19T01:15:51;230.70;2252.80
66831;DHT22;53739;44.224;22.528;2023-01-19T01:18:17;230.60;2252.80
66831;DHT22;53739;44.224;22.528;2023-01-19T01:20:42;230.60;2252.80
66831;DHT22;53739;44.224;22.528;2023-01-19T01:23:08;230.70;2252.80
66831;DHT22;53739;44.224;22.528;2023-01-19T01:25:34;230.70;2252.80
66831;DHT22;53739;44.224;22.528;2023-01-19T01:28:03;230.60;2252.80
66831;DHT22;53739;44.224;22.528;2023-01-19T01:30:31;230.60;2252.80
66831;DHT22;53739;44.224;22.528;2023-01-19T01:32:57;230.60;2252.80
66831;DHT22;53739;44.224;22.528;2023-01-19T01:35:23;230.50;2252.80
66831;DHT22;53739;44.224;22.528;2023-01-19T01:37:48;230.40;2252.80
66831;DHT22;53739;44.224;22.528;2023-01-19T01:40:17;230.50;2252.80
66831;DHT22;53739;44.224;22.528;2023-01-19T01:42:43;230.50;2252.80
66831;DHT22;53739;44.224;22.528;2023-01-19T01:45:32;230.40;2252.80
66831;DHT22;53739;44.224;22.528;2023-01-19T01:50:31;230.40;2252.80
66831;DHT22;53739;44.224;22.528;2023-01-19T01:53:02;205.70;2252.80
66831;DHT22;53739;44.224;22.528;2023-01-19T01:55:30;230.40;2252.80
66831;DHT22;53739;44.224;22.528;2023-01-19T01:58:02;205.70;2252.80
66831;DHT22;53739;44.224;22.528;2023-01-19T02:00:28;205.70;2252.80
66831;DHT22;53739;44.224;22.528;2023-01-19T02:03:15;205.50;2252.80
66831;DHT22;53739;44.224;22.528;2023-01-19T02:05:41;205.60;2252.80
66831;DHT22;53739;44.224;22.528;2023-01-19T02:08:17;205.40;2252.80
66831;DHT22;53739;44.224;22.528;2023-01-19T02:11:03;205.40;2252.80
66831;DHT22;53739;44.224;22.528;2023-01-19T02:13:49;205.50;2252.80
66831;DHT22;53739;44.224;22.528;2023-01-19T02:16:16;205.30;2252.80
66831;DHT22;53739;44.224;22.528;2023-01-19T02:18:42;205.40;2252.80
66831;DHT22;53739;44.224;22.528;2023-01-19T02:21:20;205.40;2252.80
66831;DHT22;53739;44.224;22.528;2023-01-19T02:26:33;205.20;2252.80
66831;DHT22;53739;44.224;22.528;2023-01-19T02:29:02;205.20;2252.80
66831;DHT22;53739;44.224;22.528;2023-01-19T02:31:30;205.20;2252.80
66831;DHT22;53739;44.224;22.528;2023-01-19T02:33:57;205.20;2252.80
66831;DHT22;53739;44.224;22.528;2023-01-19T02:36:27;205.20;2252.80
66831;DHT22;53739;44.224;22.528;2023-01-19T02:38:56;205.20;2252.80
66831;DHT22;53739;44.224;22.528;2023-01-19T02:41:27;205.20;2252.80
66831;DHT22;53739;44.224;22.528;2023-01-19T02:43:56;205.20;2252.80
66831;DHT22;53739;44.224;22.528;2023-01-19T02:46:23;205.00;2252.80
66831;DHT22;53739;44.224;22.528;2023-01-19T02:48:49;205.10;2252.80
66831;DHT22;53739;44.224;22.528;2023-01-19T02:51:20;205.10;2252.80
66831;DHT22;53739;44.224;22.528;2023-01-19T02:54:21;205.00;2252.80
66831;DHT22;53739;44.224;22.528;2023-01-19T03:02:22;205.00;2252.80
66831;DHT22;53739;44.224;22.528;2023-01-19T03:07:30;204.90;2252.80
66831;DHT22;53739;44.224;22.528;2023-01-19T03:10:30;204.80;2252.80
66831;DHT22;53739;44.224;22.528;2023-01-19T03:16:28;204.80;2252.80
66831;DHT22;53739;44.224;22.528;2023-01-19T03:18:55;204.80;2252.80
66831;DHT22;53739;44.224;22.528;2023-01-19T03:21:25;204.80;2252.80
66831;DHT22;53739;44.224;22.528;2023-01-19T03:23:53;204.80;2252.80
66831;DHT22;53739;44.224;22.528;2023-01-19T03:26:23;180.10;2252.80
66831;DHT22;53739;44.224;22.528;2023-01-19T03:28:50;180.10;2252.80
66831;DHT22;53739;44.224;22.528;2023-01-19T03:31:26;180.10;2252.80
66831;DHT22;53739;44.224;22.528;2023-01-19T03:33:56;180.10;2252.80
66831;DHT22;53739;44.224;22.528;2023-01-19T03:36:30;180.10;2252.80
66831;DHT22;53739;44.224;22.528;2023-01-19T03:38:58;180.10;2252.80
66831;DHT22;53739;44.224;22.528;2023-01-19T03:41:25;180.00;2252.80
66831;DHT22;53739;44.224;22.528;2023-01-19T03:43:54;180.00;2252.80
66831;DHT22;53739;44.224;22.528;2023-01-19T03:46:22;180.00;2252.80
66831;DHT22;53739;44.224;22.528;2023-01-19T03:48:48;180.00;2252.80
66831;DHT22;53739;44.224;22.528;2023-01-19T03:51:15;179.90;2252.80
66831;DHT22;53739;44.224;22.528;2023-01-19T03:53:41;179.90;2252.80
66831;DHT22;53739;44.224;22.528;2023-01-19T03:56:22;179.90;2252.80
66831;DHT22;53739;44.224;22.528;2023-01-19T03:58:49;179.90;2252.80
66831;DHT22;53739;44.224;22.528;2023-01-19T04:01:17;180.00;2252.80
66831;DHT22;53739;44.224;22.528;2023-01-19T04:03:45;180.00;2252.80
66831;DHT22;53739;44.224;22.528;2023-01-19T04:06:11;180.10;2252.80
66831;DHT22;53739;44.224;22.528;2023-01-19T04:08:37;180.00;2252.80
66831;DHT22;53739;44.224;22.528;2023-01-19T04:11:03;179.90;2252.80
66831;DHT22;53739;44.224;22.528;2023-01-19T04:13:29;179.90;2252.80
66831;DHT22;53739;44.224;22.528;2023-01-19T04:16:02;180.00;2252.80
66831;DHT22;53739;44.224;22.528;2023-01-19T04:18:29;180.00;2252.80
66831;DHT22;53739;44.224;22.528;2023-01-19T04:21:02;180.10;2252.80
66831;DHT22;53739;44.224;22.528;2023-01-19T04:23:28;180.10;2252.80
66831;DHT22;53739;44.224;22.528;2023-01-19T04:26:02;180.10;2252.80
66831;DHT22;53739;44.224;22.528;2023-01-19T04:28:28;180.10;2252.80
66831;DHT22;53739;44.224;22.528;2023-01-19T04:30:54;180.10;2252.80
66831;DHT22;53739;44.224;22.528;2023-01-19T04:33:20;204.80;2252.80
66831;DHT22;53739;44.224;22.528;2023-01-19T04:35:48;204.80;2252.80
66831;DHT22;53739;44.224;22.528;2023-01-19T04:38:14;204.80;2252.80
66831;DHT22;53739;44.224;22.528;2023-01-19T04:40:40;204.80;2252.80
66831;DHT22;53739;44.224;22.528;2023-01-19T04:43:06;204.90;2252.80
66831;DHT22;53739;44.224;22.528;2023-01-19T04:45:32;204.90;2252.80
66831;DHT22;53739;44.224;22.528;2023-01-19T04:47:57;204.90;2252.80
66831;DHT22;53739;44.224;22.528;2023-01-19T04:50:23;204.90;2252.80
66831;DHT22;53739;44.224;22.528;2023-01-19T04:52:49;204.90;2252.80
66831;DHT22;53739;44.224;22.528;2023-01-19T04:55:15;204.90;2252.80
66831;DHT22;53739;44.224;22.528;2023-01-19T04:57:41;204.90;2252.80
66831;DHT22;53739;44.224;22.528;2023-01-19T05:00:07;205.00;2252.80
66831;DHT22;53739;44.224;22.528;2023-01-19T05:02:34;204.80;2252.80
66831;DHT22;53739;44.224;22.528;2023-01-19T05:05:00;204.90;2252.80
66831;DHT22;53739;44.224;22.528;2023-01-19T05:07:26;204.90;2252.80
66831;DHT22;53739;44.224;22.528;2023-01-19T05:09:52;204.90;2252.80
66831;DHT22;53739;44.224;22.528;2023-01-19T05:12:18;204.90;2252.80
66831;DHT22;53739;44.224;22.528;2023-01-19T05:14:44;204.90;2252.80
66831;DHT22;53739;44.224;22.528;2023-01-19T05:17:10;204.80;2252.80
66831;DHT22;53739;44.224;22.528;2023-01-19T05:19:36;204.90;2252.80
66831;DHT22;53739;44.224;22.528;2023-01-19T05:22:03;205.00;2252.80
66831;DHT22;53739;44.224;22.528;2023-01-19T05:24:29;205.00;2252.80
66831;DHT22;53739;44.224;22.528;2023-01-19T05:26:55;205.10;2252.80
66831;DHT22;53739;44.224;22.528;2023-01-19T05:29:20;205.00;2252.80
66831;DHT22;53739;44.224;22.528;2023-01-19T05:31:46;205.10;2252.80
66831;DHT22;53739;44.224;22.528;2023-01-19T05:34:12;205.10;2252.80
66831;DHT22;53739;44.224;22.528;2023-01-19T05:36:39;205.10;2252.80
66831;DHT22;53739;44.224;22.528;2023-01-19T05:39:05;205.20;2252.80
66831;DHT22;53739;44.224;22.528;2023-01-19T05:41:31;205.10;2252.80
66831;DHT22;53739;44.224;22.528;2023-01-19T05:43:57;205.20;2252.80
66831;DHT22;53739;44.224;22.528;2023-01-19T05:46:23;205.10;2252.80
66831;DHT22;53739;44.224;22.528;2023-01-19T05:48:49;205.10;2252.80
66831;DHT22;53739;44.224;22.528;2023-01-19T05:51:15;205.10;2252.80
66831;DHT22;53739;44.224;22.528;2023-01-19T05:53:40;205.20;2252.80
66831;DHT22;53739;44.224;22.528;2023-01-19T05:56:08;205.20;2252.80
66831;DHT22;53739;44.224;22.528;2023-01-19T05:58:35;205.20;2252.80
66831;DHT22;53739;44.224;22.528;2023-01-19T06:01:03;205.20;2252.80
66831;DHT22;53739;44.224;22.528;2023-01-19T06:03:30;205.20;2252.80
66831;DHT22;53739;44.224;22.528;2023-01-19T06:05:57;205.20;2252.80
66831;DHT22;53739;44.224;22.528;2023-01-19T06:08:22;205.20;2252.80
66831;DHT22;53739;44.224;22.528;2023-01-19T06:10:48;205.20;2252.80
66831;DHT22;53739;44.224;22.528;2023-01-19T06:13:14;205.30;2252.80
66831;DHT22;53739;44.224;22.528;2023-01-19T06:15:40;205.30;2252.80
66831;DHT22;53739;44.224;22.528;2023-01-19T06:18:07;205.30;2252.80
66831;DHT22;53739;44.224;22.528;2023-01-19T06:20:33;205.40;2252.80
66831;DHT22;53739;44.224;22.528;2023-01-19T06:22:58;205.40;2252.80
66831;DHT22;53739;44.224;22.528;2023-01-19T06:25:24;205.40;2252.80
66831;DHT22;53739;44.224;22.528;2023-01-19T06:27:50;205.40;2252.80
66831;DHT22;53739;44.224;22.528;2023-01-19T06:30:16;205.40;2252.80
66831;DHT22;53739;44.224;22.528;2023-01-19T06:32:42;205.50;2252.80
66831;DHT22;53739;44.224;22.528;2023-01-19T06:35:08;205.50;2252.80
66831;DHT22;53739;44.224;22.528;2023-01-19T06:37:35;205.50;2252.80
66831;DHT22;53739;44.224;22.528;2023-01-19T06:40:01;205.50;2252.80
66831;DHT22;53739;44.224;22.528;2023-01-19T06:42:27;205.50;2252.80
66831;DHT22;53739;44.224;22.528;2023-01-19T06:44:52;205.50;2252.80
66831;DHT22;53739;44.224;22.528;2023-01-19T06:47:18;205.60;2252.80
66831;DHT22;53739;44.224;22.528;2023-01-19T06:49:44;205.60;2252.80
66831;DHT22;53739;44.224;22.528;2023-01-19T06:52:10;205.60;2252.80
66831;DHT22;53739;44.224;22.528;2023-01-19T06:54:38;205.50;2252.80
66831;DHT22;53739;44.224;22.528;2023-01-19T06:57:04;205.60;2252.80
66831;DHT22;53739;44.224;22.528;2023-01-19T06:59:30;205.70;2252.80
66831;DHT22;53739;44.224;22.528;2023-01-19T07:01:56;205.70;2252.80
66831;DHT22;53739;44.224;22.528;2023-01-19T07:04:21;205.70;2252.80
66831;DHT22;53739;44.224;22.528;2023-01-19T07:06:47;230.40;2252.80
66831;DHT22;53739;44.224;22.528;2023-01-19T07:09:13;230.40;2252.80
66831;DHT22;53739;44.224;22.528;2023-01-19T07:11:39;230.50;2252.80
66831;DHT22;53739;44.224;22.528;2023-01-19T07:14:04;230.60;2252.80
66831;DHT22;53739;44.224;22.528;2023-01-19T07:16:30;230.60;2252.80
66831;DHT22;53739;44.224;22.528;2023-01-19T07:18:56;230.70;2252.80
66831;DHT22;53739;44.224;22.528;2023-01-19T07:21:22;230.70;2252.80
66831;DHT22;53739;44.224;22.528;2023-01-19T07:23:49;230.80;2252.80
66831;DHT22;53739;44.224;22.528;2023-01-19T07:26:15;230.90;2252.80
66831;DHT22;53739;44.224;22.528;2023-01-19T07:28:43;230.90;2252.80
66831;DHT22;53739;44.224;22.528;2023-01-19T07:31:09;231.00;2252.80
66831;DHT22;53739;44.224;22.528;2023-01-19T07:33:34;231.00;2252.80
66831;DHT22;53739;44.224;22.528;2023-01-19T07:36:00;231.10;2252.80
66831;DHT22;53739;44.224;22.528;2023-01-19T07:38:26;231.10;2252.80
66831;DHT22;53739;44.224;22.528;2023-01-19T07:40:59;231.20;2252.80
66831;DHT22;53739;44.224;22.528;2023-01-19T07:43:25;231.20;2252.80
66831;DHT22;53739;44.224;22.528;2023-01-19T07:45:51;256.00;2252.80
66831;DHT22;53739;44.224;22.528;2023-01-19T07:48:17;256.20;2252.80
66831;DHT22;53739;44.224;22.528;2023-01-19T07:50:42;256.30;2252.80
66831;DHT22;53739;44.224;22.528;2023-01-19T07:53:09;256.40;2252.80
66831;DHT22;53739;44.224;22.528;2023-01-19T07:55:36;256.50;2252.80
66831;DHT22;53739;44.224;22.528;2023-01-19T07:58:02;256.60;2252.80
66831;DHT22;53739;44.224;22.528;2023-01-19T08:00:32;256.70;2252.80
66831;DHT22;53739;44.224;22.528;2023-01-19T08:02:59;256.90;2252.80
66831;DHT22;53739;44.224;22.528;2023-01-19T08:05:25;256.90;2252.80
66831;DHT22;53739;44.224;22.528;2023-01-19T08:07:54;256.90;2252.80
66831;DHT22;53739;44.224;22.528;2023-01-19T08:10:23;281.60;2278.40
66831;DHT22;53739;44.224;22.528;2023-01-19T08:12:52;281.70;2278.40
66831;DHT22;53739;44.224;22.528;2023-01-19T08:15:18;281.80;2278.40
66831;DHT22;53739;44.224;22.528;2023-01-19T08:17:44;281.80;2278.40
66831;DHT22;53739;44.224;22.528;2023-01-19T08:20:10;281.80;2278.40
66831;DHT22;53739;44.224;22.528;2023-01-19T08:22:36;281.90;2278.40
66831;DHT22;53739;44.224;22.528;2023-01-19T08:25:02;282.00;2278.40
66831;DHT22;53739;44.224;22.528;2023-01-19T08:27:28;282.00;2278.40
66831;DHT22;53739;44.224;22.528;2023-01-19T08:29:55;282.00;2278.40
66831;DHT22;53739;44.224;22.528;2023-01-19T08:32:21;282.00;2278.40
66831;DHT22;53739;44.224;22.528;2023-01-19T08:34:47;282.10;2278.40
66831;DHT22;53739;44.224;22.528;2023-01-19T08:37:12;282.20;2278.40
66831;DHT22;53739;44.224;22.528;2023-01-19T08:39:38;282.20;2278.40
66831;DHT22;53739;44.224;22.528;2023-01-19T08:42:04;282.20;2278.40
66831;DHT22;53739;44.224;22.528;2023-01-19T08:44:30;282.30;2278.40
66831;DHT22;53739;44.224;22.528;2023-01-19T08:46:55;282.40;2278.40
66831;DHT22;53739;44.224;22.528;2023-01-19T08:49:21;307.20;2304.00
66831;DHT22;53739;44.224;22.528;2023-01-19T08:51:47;307.30;2304.00
66831;DHT22;53739;44.224;22.528;2023-01-19T08:54:13;307.40;2304.00
66831;DHT22;53739;44.224;22.528;2023-01-19T08:56:40;307.40;2304.00
66831;DHT22;53739;44.224;22.528;2023-01-19T08:59:05;307.50;2304.00
66831;DHT22;53739;44.224;22.528;2023-01-19T09:01:31;307.60;2304.00
66831;DHT22;53739;44.224;22.528;2023-01-19T09:03:57;307.60;2304.00
66831;DHT22;53739;44.224;22.528;2023-01-19T09:06:22;307.60;2304.00
66831;DHT22;53739;44.224;22.528;2023-01-19T09:08:50;307.70;2304.00
66831;DHT22;53739;44.224;22.528;2023-01-19T09:11:15;307.70;2304.00
66831;DHT22;53739;44.224;22.528;2023-01-19T09:13:42;307.80;2304.00
66831;DHT22;53739;44.224;22.528;2023-01-19T09:16:08;307.80;2304.00
66831;DHT22;53739;44.224;22.528;2023-01-19T09:18:36;307.80;2304.00
66831;DHT22;53739;44.224;22.528;2023-01-19T09:21:02;307.90;2304.00
66831;DHT22;53739;44.224;22.528;2023-01-19T09:23:31;308.00;2304.00
66831;DHT22;53739;44.224;22.528;2023-01-19T09:25:58;308.10;2304.00
66831;DHT22;53739;44.224;22.528;2023-01-19T09:28:25;332.90;2329.60
66831;DHT22;53739;44.224;22.528;2023-01-19T09:30:51;333.40;2329.60
66831;DHT22;53739;44.224;22.528;2023-01-19T09:33:18;358.50;2329.60
66831;DHT22;53739;44.224;22.528;2023-01-19T09:35:45;358.90;2329.60
66831;DHT22;53739;44.224;22.528;2023-01-19T09:38:12;359.20;128.00
66831;DHT22;53739;44.224;22.528;2023-01-19T09:40:46;384.20;588.80
66831;DHT22;53739;44.224;22.528;2023-01-19T09:45:54;384.90;128.00
66831;DHT22;53739;44.224;22.528;2023-01-19T09:51:20;384.90;128.00
66831;DHT22;53739;44.224;22.528;2023-01-19T09:56:27;409.90;128.00
66831;DHT22;53739;44.224;22.528;2023-01-19T09:58:53;410.20;128.00
66831;DHT22;53739;44.224;22.528;2023-01-19T10:04:05;410.30;128.00
66831;DHT22;53739;44.224;22.528;2023-01-19T10:06:32;410.30;128.00
66831;DHT22;53739;44.224;22.528;2023-01-19T10:09:10;410.30;128.00
66831;DHT22;53739;44.224;22.528;2023-01-19T10:11:52;410.30;128.00
66831;DHT22;53739;44.224;22.528;2023-01-19T10:14:35;410.30;128.00
66831;DHT22;53739;44.224;22.528;2023-01-19T10:17:26;410.20;128.00
66831;DHT22;53739;44.224;22.528;2023-01-19T10:19:56;410.20;230.40
66831;DHT22;53739;44.224;22.528;2023-01-19T10:22:26;410.20;640.00
66831;DHT22;53739;44.224;22.528;2023-01-19T10:24:58;410.00;128.00
66831;DHT22;53739;44.224;22.528;2023-01-19T10:27:29;410.10;128.00
66831;DHT22;53739;44.224;22.528;2023-01-19T10:29:56;410.30;179.20
66831;DHT22;53739;44.224;22.528;2023-01-19T10:47:17;461.10;384.00
66831;DHT22;53739;44.224;22.528;2023-01-19T10:49:43;461.30;128.00
66831;DHT22;53739;44.224;22.528;2023-01-19T10:52:27;461.50;128.00
66831;DHT22;53739;44.224;22.528;2023-01-19T10:54:54;461.60;128.00
66831;DHT22;53739;44.224;22.528;2023-01-19T10:57:28;461.40;128.00
66831;DHT22;53739;44.224;22.528;2023-01-19T10:59:55;461.50;128.00
66831;DHT22;53739;44.224;22.528;2023-01-19T11:02:27;461.60;128.00
66831;DHT22;53739;44.224;22.528;2023-01-19T11:04:55;461.40;128.00
66831;DHT22;53739;44.224;22.528;2023-01-19T11:07:29;461.00;128.00
66831;DHT22;53739;44.224;22.528;2023-01-19T11:12:41;435.80;128.00
66831;DHT22;53739;44.224;22.528;2023-01-19T11:15:14;435.70;128.00
66831;DHT22;53739;44.224;22.528;2023-01-19T11:17:41;435.60;128.00
66831;DHT22;53739;44.224;22.528;2023-01-19T11:20:39;435.50;128.00
66831;DHT22;53739;44.224;22.528;2023-01-19T11:28:34;435.20;128.00
66831;DHT22;53739;44.224;22.528;2023-01-19T11:33:41;410.40;128.00
66831;DHT22;53739;44.224;22.528;2023-01-19T11:36:25;410.30;128.00
66831;DHT22;53739;44.224;22.528;2023-01-19T11:38:54;410.30;128.00
66831;DHT22;53739;44.224;22.528;2023-01-19T11:41:24;410.40;128.00
66831;DHT22;53739;44.224;22.528;2023-01-19T11:46:45;410.30;128.00
66831;DHT22;53739;44.224;22.528;2023-01-19T11:56:46;410.20;128.00
66831;DHT22;53739;44.224;22.528;2023-01-19T12:12:09;384.60;128.00
66831;DHT22;53739;44.224;22.528;2023-01-19T12:14:46;384.60;128.00
66831;DHT22;53739;44.224;22.528;2023-01-19T12:17:37;384.50;128.00
66831;DHT22;53739;44.224;22.528;2023-01-19T12:20:39;384.30;128.00
66831;DHT22;53739;44.224;22.528;2023-01-19T12:29:07;384.10;128.00
66831;DHT22;53739;44.224;22.528;2023-01-19T12:31:36;384.00;128.00
66831;DHT22;53739;44.224;22.528;2023-01-19T12:37:03;384.00;128.00
66831;DHT22;53739;44.224;22.528;2023-01-19T12:39:29;359.30;128.00
66831;DHT22;53739;44.224;22.528;2023-01-19T12:42:15;359.30;128.00
66831;DHT22;53739;44.224;22.528;2023-01-19T12:44:42;359.30;128.00
66831;DHT22;53739;44.224;22.528;2023-01-19T12:49:45;359.30;128.00
66831;DHT22;53739;44.224;22.528;2023-01-19T13:00:01;384.00;128.00
66831;DHT22;53739;44.224;22.528;2023-01-19T13:02:45;384.10;128.00
66831;DHT22;53739;44.224;22.528;2023-01-19T13:05:25;384.00;128.00
66831;DHT22;53739;44.224;22.528;2023-01-19T13:13:29;359.20;128.00
66831;DHT22;53739;44.224;22.528;2023-01-19T13:15:59;359.10;128.00
66831;DHT22;53739;44.224;22.528;2023-01-19T13:18:56;359.10;281.60
66831;DHT22;53739;44.224;22.528;2023-01-19T13:21:37;359.00;128.00
66831;DHT22;53739;44.224;22.528;2023-01-19T13:24:12;358.90;128.00
66831;DHT22;53739;44.224;22.528;2023-01-19T13:26:42;358.90;128.00
66831;DHT22;53739;44.224;22.528;2023-01-19T13:31:45;358.80;128.00
66831;DHT22;53739;44.224;22.528;2023-01-19T13:34:25;358.70;128.00
66831;DHT22;53739;44.224;22.528;2023-01-19T13:36:53;358.70;128.00
66831;DHT22;53739;44.224;22.528;2023-01-19T13:39:55;358.60;128.00
66831;DHT22;53739;44.224;22.528;2023-01-19T13:44:52;358.40;128.00
66831;DHT22;53739;44.224;22.528;2023-01-19T13:47:57;333.60;128.00
66831;DHT22;53739;44.224;22.528;2023-01-19T13:50:20;333.40;358.40
66831;DHT22;53739;44.224;22.528;2023-01-19T13:52:46;333.30;128.00
66831;DHT22;53739;44.224;22.528;2023-01-19T13:55:14;333.10;128.00
66831;DHT22;53739;44.224;22.528;2023-01-19T13:57:42;332.90;2022.40
66831;DHT22;53739;44.224;22.528;2023-01-19T14:05:31;307.90;2304.00
66831;DHT22;53739;44.224;22.528;2023-01-19T14:15:55;307.70;2304.00
66831;DHT22;53739;44.224;22.528;2023-01-19T14:18:27;307.70;2304.00
66831;DHT22;53739;44.224;22.528;2023-01-19T14:27:20;307.60;2304.00
66831;DHT22;53739;44.224;22.528;2023-01-19T14:29:33;307.40;2304.00
66831;DHT22;53739;44.224;22.528;2023-01-19T14:34:51;307.40;2304.00
66831;DHT22;53739;44.224;22.528;2023-01-19T14:37:30;307.40;2304.00
66831;DHT22;53739;44.224;22.528;2023-01-19T14:42:38;307.30;2304.00
66831;DHT22;53739;44.224;22.528;2023-01-19T14:48:00;307.30;2304.00
66831;DHT22;53739;44.224;22.528;2023-01-19T14:50:33;307.20;2304.00
66831;DHT22;53739;44.224;22.528;2023-01-19T14:53:25;307.20;2304.00
66831;DHT22;53739;44.224;22.528;2023-01-19T14:56:02;307.30;2304.00
66831;DHT22;53739;44.224;22.528;2023-01-19T14:58:31;307.30;2304.00
66831;DHT22;53739;44.224;22.528;2023-01-19T15:00:58;307.20;2304.00
66831;DHT22;53739;44.224;22.528;2023-01-19T15:03:24;307.20;2304.00
66831;DHT22;53739;44.224;22.528;2023-01-19T15:05:51;307.20;2304.00
66831;DHT22;53739;44.224;22.528;2023-01-19T15:08:31;307.20;2304.00
66831;DHT22;53739;44.224;22.528;2023-01-19T15:11:01;307.20;2304.00
66831;DHT22;53739;44.224;22.528;2023-01-19T15:13:30;282.50;2278.40
66831;DHT22;53739;44.224;22.528;2023-01-19T15:15:56;282.50;2278.40
66831;DHT22;53739;44.224;22.528;2023-01-19T15:18:24;282.50;2278.40
66831;DHT22;53739;44.224;22.528;2023-01-19T15:20:54;282.50;2278.40
66831;DHT22;53739;44.224;22.528;2023-01-19T15:23:21;282.40;2278.40
66831;DHT22;53739;44.224;22.528;2023-01-19T15:25:47;282.40;2278.40
66831;DHT22;53739;44.224;22.528;2023-01-19T15:28:17;282.50;2278.40
66831;DHT22;53739;44.224;22.528;2023-01-19T15:30:43;282.40;2278.40
66831;DHT22;53739;44.224;22.528;2023-01-19T15:33:35;282.40;2278.40
66831;DHT22;53739;44.224;22.528;2023-01-19T15:36:01;282.40;2278.40
66831;DHT22;53739;44.224;22.528;2023-01-19T15:38:27;282.30;2278.40
66831;DHT22;53739;44.224;22.528;2023-01-19T15:40:52;282.30;2278.40
66831;DHT22;53739;44.224;22.528;2023-01-19T15:43:18;282.40;2278.40
66831;DHT22;53739;44.224;22.528;2023-01-19T15:46:01;282.30;2278.40
66831;DHT22;53739;44.224;22.528;2023-01-19T15:48:27;282.30;2278.40
66831;DHT22;53739;44.224;22.528;2023-01-19T15:50:53;282.30;2278.40
66831;DHT22;53739;44.224;22.528;2023-01-19T15:53:20;282.40;2278.40
66831;DHT22;53739;44.224;22.528;2023-01-19T15:55:49;282.40;2278.40
66831;DHT22;53739;44.224;22.528;2023-01-19T15:58:16;282.40;2278.40
66831;DHT22;53739;44.224;22.528;2023-01-19T16:00:42;282.30;2278.40
66831;DHT22;53739;44.224;22.528;2023-01-19T16:03:09;282.40;2278.40
66831;DHT22;53739;44.224;22.528;2023-01-19T16:05:35;282.40;2278.40
66831;DHT22;53739;44.224;22.528;2023-01-19T16:08:01;282.40;2278.40
66831;DHT22;53739;44.224;22.528;2023-01-19T16:10:27;282.40;2278.40
66831;DHT22;53739;44.224;22.528;2023-01-19T16:12:52;282.40;2278.40
66831;DHT22;53739;44.224;22.528;2023-01-19T16:15:18;282.40;2278.40
66831;DHT22;53739;44.224;22.528;2023-01-19T16:17:44;282.30;2278.40
66831;DHT22;53739;44.224;22.528;2023-01-19T16:20:10;282.30;2278.40
66831;DHT22;53739;44.224;22.528;2023-01-19T16:22:37;282.40;2278.40
66831;DHT22;53739;44.224;22.528;2023-01-19T16:25:03;282.40;2278.40
66831;DHT22;53739;44.224;22.528;2023-01-19T16:27:29;282.30;2278.40
66831;DHT22;53739;44.224;22.528;2023-01-19T16:29:55;282.30;2278.40
66831;DHT22;53739;44.224;22.528;2023-01-19T16:32:22;282.30;2278.40
66831;DHT22;53739;44.224;22.528;2023-01-19T16:34:48;282.30;2278.40
66831;DHT22;53739;44.224;22.528;2023-01-19T16:37:13;282.40;2278.40
66831;DHT22;53739;44.224;22.528;2023-01-19T16:39:39;282.30;2278.40
66831;DHT22;53739;44.224;22.528;2023-01-19T16:42:05;282.30;2278.40
66831;DHT22;53739;44.224;22.528;2023-01-19T16:44:31;282.30;2278.40
66831;DHT22;53739;44.224;22.528;2023-01-19T16:46:56;282.30;2278.40
66831;DHT22;53739;44.224;22.528;2023-01-19T16:49:24;282.30;2278.40
66831;DHT22;53739;44.224;22.528;2023-01-19T16:51:51;282.30;2278.40
66831;DHT22;53739;44.224;22.528;2023-01-19T16:54:21;282.20;2278.40
66831;DHT22;53739;44.224;22.528;2023-01-19T16:56:48;282.30;2278.40
66831;DHT22;53739;44.224;22.528;2023-01-19T16:59:15;282.40;2278.40
66831;DHT22;53739;44.224;22.528;2023-01-19T17:01:42;282.30;2278.40